sensor_id;sensor_type;location;lat;lon;timestamp;temperature;humidity
20091;DHT22;10205;49.678;6.560;2023-04-24T00:02:03;16.10;61.80
20091;DHT22;10205;49.678;6.560;2023-04-24T00:04:32;16.10;62.80
20091;DHT22;10205;49.678;6.560;2023-04-24T00:06:59;16.10;61.90
20091;DHT22;10205;49.678;6.560;2023-04-24T00:09:27;16.10;61.80
20091;DHT22;10205;49.678;6.560;2023-04-24T00:11:55;16.10;62.00
20091;DHT22;10205;49.678;6.560;2023-04-24T00:14:22;16.10;62.10
20091;DHT22;10205;49.678;6.560;2023-04-24T00:16:49;16.10;62.10
20091;DHT22;10205;49.678;6.560;2023-04-24T00:19:17;16.00;62.10
20091;DHT22;10205;49.678;6.560;2023-04-24T00:21:46;16.00;62.10
20091;DHT22;10205;49.678;6.560;2023-04-24T00:24:15;16.00;62.10
20091;DHT22;10205;49.678;6.560;2023-04-24T00:26:44;16.00;62.10
20091;DHT22;10205;49.678;6.560;2023-04-24T00:29:11;16.00;62.30
20091;DHT22;10205;49.678;6.560;2023-04-24T00:31:38;16.00;62.20
20091;DHT22;10205;49.678;6.560;2023-04-24T00:34:06;15.90;62.10
20091;DHT22;10205;49.678;6.560;2023-04-24T00:36:33;15.90;62.20
20091;DHT22;10205;49.678;6.560;2023-04-24T00:39:00;15.90;62.10
20091;DHT22;10205;49.678;6.560;2023-04-24T00:41:27;15.90;62.10
20091;DHT22;10205;49.678;6.560;2023-04-24T00:43:56;15.90;62.40
20091;DHT22;10205;49.678;6.560;2023-04-24T00:46:23;15.90;62.50
20091;DHT22;10205;49.678;6.560;2023-04-24T00:48:51;15.90;62.50
20091;DHT22;10205;49.678;6.560;2023-04-24T00:51:18;15.80;62.40
20091;DHT22;10205;49.678;6.560;2023-04-24T00:53:46;15.80;62.40
20091;DHT22;10205;49.678;6.560;2023-04-24T00:56:15;15.80;62.40
20091;DHT22;10205;49.678;6.560;2023-04-24T00:58:42;15.70;62.30
20091;DHT22;10205;49.678;6.560;2023-04-24T01:01:11;15.80;62.40
20091;DHT22;10205;49.678;6.560;2023-04-24T01:03:40;15.70;62.40
20091;DHT22;10205;49.678;6.560;2023-04-24T01:06:08;15.70;62.40
20091;DHT22;10205;49.678;6.560;2023-04-24T01:08:37;15.70;62.40
20091;DHT22;10205;49.678;6.560;2023-04-24T01:11:06;15.70;62.40
20091;DHT22;10205;49.678;6.560;2023-04-24T01:13:34;15.70;62.40
20091;DHT22;10205;49.678;6.560;2023-04-24T01:16:01;15.70;62.40
20091;DHT22;10205;49.678;6.560;2023-04-24T01:18:32;15.70;62.30
20091;DHT22;10205;49.678;6.560;2023-04-24T01:21:04;15.70;62.30
20091;DHT22;10205;49.678;6.560;2023-04-24T01:23:34;15.70;62.20
20091;DHT22;10205;49.678;6.560;2023-04-24T01:26:02;15.70;62.00
20091;DHT22;10205;49.678;6.560;2023-04-24T01:28:29;15.60;61.90
20091;DHT22;10205;49.678;6.560;2023-04-24T01:30:56;15.60;61.90
20091;DHT22;10205;49.678;6.560;2023-04-24T01:33:26;15.60;62.00
20091;DHT22;10205;49.678;6.560;2023-04-24T01:35:54;15.60;62.10
20091;DHT22;10205;49.678;6.560;2023-04-24T01:38:21;15.50;61.70
20091;DHT22;10205;49.678;6.560;2023-04-24T01:40:50;15.50;61.70
20091;DHT22;10205;49.678;6.560;2023-04-24T01:43:18;15.50;62.00
20091;DHT22;10205;49.678;6.560;2023-04-24T01:45:45;15.50;61.80
20091;DHT22;10205;49.678;6.560;2023-04-24T01:48:13;15.50;61.90
20091;DHT22;10205;49.678;6.560;2023-04-24T01:50:41;15.50;61.90
20091;DHT22;10205;49.678;6.560;2023-04-24T01:53:08;15.40;61.70
20091;DHT22;10205;49.678;6.560;2023-04-24T01:55:35;15.40;61.40
20091;DHT22;10205;49.678;6.560;2023-04-24T01:58:04;15.40;61.40
20091;DHT22;10205;49.678;6.560;2023-04-24T02:00:31;15.40;61.20
20091;DHT22;10205;49.678;6.560;2023-04-24T02:02:58;15.30;61.10
20091;DHT22;10205;49.678;6.560;2023-04-24T02:05:27;15.40;61.30
20091;DHT22;10205;49.678;6.560;2023-04-24T02:07:54;15.30;62.10
20091;DHT22;10205;49.678;6.560;2023-04-24T02:10:21;15.30;61.00
20091;DHT22;10205;49.678;6.560;2023-04-24T02:12:50;15.30;61.30
20091;DHT22;10205;49.678;6.560;2023-04-24T02:15:19;15.30;61.30
20091;DHT22;10205;49.678;6.560;2023-04-24T02:17:46;15.20;61.10
20091;DHT22;10205;49.678;6.560;2023-04-24T02:20:13;15.20;61.20
20091;DHT22;10205;49.678;6.560;2023-04-24T02:22:40;15.20;61.30
20091;DHT22;10205;49.678;6.560;2023-04-24T02:25:08;15.20;61.30
20091;DHT22;10205;49.678;6.560;2023-04-24T02:27:35;15.20;61.30
20091;DHT22;10205;49.678;6.560;2023-04-24T02:30:03;15.20;61.40
20091;DHT22;10205;49.678;6.560;2023-04-24T02:32:32;15.20;61.00
20091;DHT22;10205;49.678;6.560;2023-04-24T02:34:59;15.10;61.00
20091;DHT22;10205;49.678;6.560;2023-04-24T02:37:26;15.10;60.90
20091;DHT22;10205;49.678;6.560;2023-04-24T02:39:53;15.10;61.00
20091;DHT22;10205;49.678;6.560;2023-04-24T02:42:20;15.10;60.80
20091;DHT22;10205;49.678;6.560;2023-04-24T02:44:48;15.10;60.70
20091;DHT22;10205;49.678;6.560;2023-04-24T02:47:16;15.10;60.70
20091;DHT22;10205;49.678;6.560;2023-04-24T02:49:45;15.00;60.70
20091;DHT22;10205;49.678;6.560;2023-04-24T02:52:12;15.00;60.90
20091;DHT22;10205;49.678;6.560;2023-04-24T02:54:40;15.00;60.80
20091;DHT22;10205;49.678;6.560;2023-04-24T02:57:07;14.90;60.90
20091;DHT22;10205;49.678;6.560;2023-04-24T02:59:34;14.90;60.90
20091;DHT22;10205;49.678;6.560;2023-04-24T03:02:01;14.90;61.00
20091;DHT22;10205;49.678;6.560;2023-04-24T03:04:28;14.90;61.10
20091;DHT22;10205;49.678;6.560;2023-04-24T03:06:57;14.90;60.90
20091;DHT22;10205;49.678;6.560;2023-04-24T03:09:26;14.80;60.90
20091;DHT22;10205;49.678;6.560;2023-04-24T03:11:53;14.80;61.00
20091;DHT22;10205;49.678;6.560;2023-04-24T03:14:21;14.80;61.00
20091;DHT22;10205;49.678;6.560;2023-04-24T03:16:48;14.80;61.90
20091;DHT22;10205;49.678;6.560;2023-04-24T03:19:15;14.80;61.80
20091;DHT22;10205;49.678;6.560;2023-04-24T03:21:42;14.70;61.00
20091;DHT22;10205;49.678;6.560;2023-04-24T03:24:12;14.70;61.10
20091;DHT22;10205;49.678;6.560;2023-04-24T03:26:39;14.70;60.40
20091;DHT22;10205;49.678;6.560;2023-04-24T03:29:06;14.70;61.20
20091;DHT22;10205;49.678;6.560;2023-04-24T03:31:33;14.60;61.20
20091;DHT22;10205;49.678;6.560;2023-04-24T03:34:00;14.60;61.20
20091;DHT22;10205;49.678;6.560;2023-04-24T03:36:27;14.60;61.30
20091;DHT22;10205;49.678;6.560;2023-04-24T03:38:54;14.60;61.30
20091;DHT22;10205;49.678;6.560;2023-04-24T03:41:23;14.60;61.30
20091;DHT22;10205;49.678;6.560;2023-04-24T03:43:50;14.50;61.30
20091;DHT22;10205;49.678;6.560;2023-04-24T03:46:19;14.50;62.20
20091;DHT22;10205;49.678;6.560;2023-04-24T03:48:46;14.50;61.50
20091;DHT22;10205;49.678;6.560;2023-04-24T03:51:14;14.50;61.50
20091;DHT22;10205;49.678;6.560;2023-04-24T03:53:41;14.40;61.40
20091;DHT22;10205;49.678;6.560;2023-04-24T03:56:08;14.40;61.50
20091;DHT22;10205;49.678;6.560;2023-04-24T03:58:37;14.40;61.50
20091;DHT22;10205;49.678;6.560;2023-04-24T04:01:04;14.40;61.50
20091;DHT22;10205;49.678;6.560;2023-04-24T04:03:31;14.40;61.70
20091;DHT22;10205;49.678;6.560;2023-04-24T04:05:59;14.40;61.70
20091;DHT22;10205;49.678;6.560;2023-04-24T04:08:26;14.30;61.70
20091;DHT22;10205;49.678;6.560;2023-04-24T04:10:53;14.30;61.70
20091;DHT22;10205;49.678;6.560;2023-04-24T04:13:20;14.30;61.80
20091;DHT22;10205;49.678;6.560;2023-04-24T04:15:49;14.30;61.90
20091;DHT22;10205;49.678;6.560;2023-04-24T04:18:16;14.20;61.90
20091;DHT22;10205;49.678;6.560;2023-04-24T04:20:43;14.20;61.80
20091;DHT22;10205;49.678;6.560;2023-04-24T04:23:10;14.20;61.90
20091;DHT22;10205;49.678;6.560;2023-04-24T04:25:37;14.20;62.00
20091;DHT22;10205;49.678;6.560;2023-04-24T04:28:04;14.20;62.00
20091;DHT22;10205;49.678;6.560;2023-04-24T04:30:31;14.10;62.00
20091;DHT22;10205;49.678;6.560;2023-04-24T04:33:00;14.10;62.00
20091;DHT22;10205;49.678;6.560;2023-04-24T04:35:28;14.10;62.10
20091;DHT22;10205;49.678;6.560;2023-04-24T04:37:55;14.10;62.10
20091;DHT22;10205;49.678;6.560;2023-04-24T04:40:24;14.10;62.10
20091;DHT22;10205;49.678;6.560;2023-04-24T04:42:52;14.10;62.80
20091;DHT22;10205;49.678;6.560;2023-04-24T04:45:19;14.10;63.00
20091;DHT22;10205;49.678;6.560;2023-04-24T04:47:47;14.00;62.00
20091;DHT22;10205;49.678;6.560;2023-04-24T04:50:16;14.00;62.10
20091;DHT22;10205;49.678;6.560;2023-04-24T04:52:45;14.00;62.10
20091;DHT22;10205;49.678;6.560;2023-04-24T04:55:12;14.00;62.00
20091;DHT22;10205;49.678;6.560;2023-04-24T04:57:40;14.00;62.00
20091;DHT22;10205;49.678;6.560;2023-04-24T05:00:08;14.00;62.10
20091;DHT22;10205;49.678;6.560;2023-04-24T05:02:37;14.00;62.10
20091;DHT22;10205;49.678;6.560;2023-04-24T05:05:05;14.00;62.10
20091;DHT22;10205;49.678;6.560;2023-04-24T05:07:34;14.00;62.10
20091;DHT22;10205;49.678;6.560;2023-04-24T05:10:02;13.90;62.00
20091;DHT22;10205;49.678;6.560;2023-04-24T05:12:29;13.90;62.10
20091;DHT22;10205;49.678;6.560;2023-04-24T05:14:59;13.90;62.00
20091;DHT22;10205;49.678;6.560;2023-04-24T05:17:26;13.90;62.10
20091;DHT22;10205;49.678;6.560;2023-04-24T05:19:54;13.90;62.20
20091;DHT22;10205;49.678;6.560;2023-04-24T05:22:21;13.90;62.20
20091;DHT22;10205;49.678;6.560;2023-04-24T05:24:50;13.90;62.10
20091;DHT22;10205;49.678;6.560;2023-04-24T05:27:19;13.90;62.30
20091;DHT22;10205;49.678;6.560;2023-04-24T05:29:46;13.80;62.20
20091;DHT22;10205;49.678;6.560;2023-04-24T05:32:14;13.90;62.30
20091;DHT22;10205;49.678;6.560;2023-04-24T05:34:41;13.80;62.20
20091;DHT22;10205;49.678;6.560;2023-04-24T05:37:08;13.80;62.20
20091;DHT22;10205;49.678;6.560;2023-04-24T05:39:35;13.80;62.30
20091;DHT22;10205;49.678;6.560;2023-04-24T05:42:04;13.80;62.30
20091;DHT22;10205;49.678;6.560;2023-04-24T05:44:32;13.80;62.30
20091;DHT22;10205;49.678;6.560;2023-04-24T05:46:59;13.80;62.30
20091;DHT22;10205;49.678;6.560;2023-04-24T05:49:26;13.80;62.30
20091;DHT22;10205;49.678;6.560;2023-04-24T05:51:53;13.80;62.20
20091;DHT22;10205;49.678;6.560;2023-04-24T05:54:21;13.80;62.20
20091;DHT22;10205;49.678;6.560;2023-04-24T05:56:49;13.80;62.30
20091;DHT22;10205;49.678;6.560;2023-04-24T05:59:18;13.80;63.00
20091;DHT22;10205;49.678;6.560;2023-04-24T06:01:45;13.80;62.30
20091;DHT22;10205;49.678;6.560;2023-04-24T06:04:13;13.80;62.30
20091;DHT22;10205;49.678;6.560;2023-04-24T06:06:42;13.80;62.30
20091;DHT22;10205;49.678;6.560;2023-04-24T06:09:10;13.80;62.30
20091;DHT22;10205;49.678;6.560;2023-04-24T06:11:37;13.80;62.40
20091;DHT22;10205;49.678;6.560;2023-04-24T06:14:04;13.80;62.40
20091;DHT22;10205;49.678;6.560;2023-04-24T06:16:33;13.80;63.20
20091;DHT22;10205;49.678;6.560;2023-04-24T06:19:00;13.70;62.40
20091;DHT22;10205;49.678;6.560;2023-04-24T06:21:27;13.70;62.40
20091;DHT22;10205;49.678;6.560;2023-04-24T06:23:54;13.70;62.40
20091;DHT22;10205;49.678;6.560;2023-04-24T06:26:22;13.70;62.50
20091;DHT22;10205;49.678;6.560;2023-04-24T06:28:50;13.70;62.60
20091;DHT22;10205;49.678;6.560;2023-04-24T06:31:19;13.70;62.60
20091;DHT22;10205;49.678;6.560;2023-04-24T06:33:48;13.70;62.60
20091;DHT22;10205;49.678;6.560;2023-04-24T06:36:16;13.70;62.70
20091;DHT22;10205;49.678;6.560;2023-04-24T06:38:43;13.70;62.70
20091;DHT22;10205;49.678;6.560;2023-04-24T06:41:12;13.70;62.60
20091;DHT22;10205;49.678;6.560;2023-04-24T06:43:39;13.70;62.80
20091;DHT22;10205;49.678;6.560;2023-04-24T06:46:07;13.70;62.70
20091;DHT22;10205;49.678;6.560;2023-04-24T06:48:34;13.70;62.80
20091;DHT22;10205;49.678;6.560;2023-04-24T06:51:02;13.60;62.80
20091;DHT22;10205;49.678;6.560;2023-04-24T06:53:32;13.60;62.80
20091;DHT22;10205;49.678;6.560;2023-04-24T06:56:00;13.60;62.80
20091;DHT22;10205;49.678;6.560;2023-04-24T06:58:27;13.60;62.80
20091;DHT22;10205;49.678;6.560;2023-04-24T07:01:04;13.60;62.80
20091;DHT22;10205;49.678;6.560;2023-04-24T07:03:31;13.60;62.90
20091;DHT22;10205;49.678;6.560;2023-04-24T07:05:58;13.60;62.80
20091;DHT22;10205;49.678;6.560;2023-04-24T07:08:27;13.60;62.90
20091;DHT22;10205;49.678;6.560;2023-04-24T07:11:00;13.60;62.90
20091;DHT22;10205;49.678;6.560;2023-04-24T07:13:28;13.60;63.00
20091;DHT22;10205;49.678;6.560;2023-04-24T07:16:38;13.60;62.90
20091;DHT22;10205;49.678;6.560;2023-04-24T07:20:12;13.60;63.20
20091;DHT22;10205;49.678;6.560;2023-04-24T07:22:40;13.70;62.90
20091;DHT22;10205;49.678;6.560;2023-04-24T07:25:09;13.60;63.70
20091;DHT22;10205;49.678;6.560;2023-04-24T07:27:36;13.60;62.90
20091;DHT22;10205;49.678;6.560;2023-04-24T07:30:25;13.60;63.00
20091;DHT22;10205;49.678;6.560;2023-04-24T07:33:13;13.60;63.30
20091;DHT22;10205;49.678;6.560;2023-04-24T07:35:40;13.60;64.10
20091;DHT22;10205;49.678;6.560;2023-04-24T07:38:07;13.60;63.30
20091;DHT22;10205;49.678;6.560;2023-04-24T07:40:36;13.60;63.60
20091;DHT22;10205;49.678;6.560;2023-04-24T07:43:03;13.60;63.60
20091;DHT22;10205;49.678;6.560;2023-04-24T07:45:33;13.60;63.70
20091;DHT22;10205;49.678;6.560;2023-04-24T07:48:02;13.60;63.90
20091;DHT22;10205;49.678;6.560;2023-04-24T07:50:30;13.60;63.80
20091;DHT22;10205;49.678;6.560;2023-04-24T07:52:57;13.50;63.70
20091;DHT22;10205;49.678;6.560;2023-04-24T07:55:24;13.60;63.90
20091;DHT22;10205;49.678;6.560;2023-04-24T07:57:52;13.60;63.90
20091;DHT22;10205;49.678;6.560;2023-04-24T08:00:20;13.60;64.20
20091;DHT22;10205;49.678;6.560;2023-04-24T08:02:47;13.60;64.10
20091;DHT22;10205;49.678;6.560;2023-04-24T08:05:14;13.60;64.30
20091;DHT22;10205;49.678;6.560;2023-04-24T08:07:42;13.60;64.10
20091;DHT22;10205;49.678;6.560;2023-04-24T08:10:11;13.60;64.10
20091;DHT22;10205;49.678;6.560;2023-04-24T08:12:39;13.60;64.00
20091;DHT22;10205;49.678;6.560;2023-04-24T08:15:09;13.60;64.00
20091;DHT22;10205;49.678;6.560;2023-04-24T08:17:36;13.60;64.20
20091;DHT22;10205;49.678;6.560;2023-04-24T08:20:05;13.60;64.10
20091;DHT22;10205;49.678;6.560;2023-04-24T08:22:35;13.60;64.20
20091;DHT22;10205;49.678;6.560;2023-04-24T08:25:03;13.70;64.10
20091;DHT22;10205;49.678;6.560;2023-04-24T08:27:31;13.70;64.10
20091;DHT22;10205;49.678;6.560;2023-04-24T08:29:58;13.60;64.40
20091;DHT22;10205;49.678;6.560;2023-04-24T08:32:26;13.70;64.40
20091;DHT22;10205;49.678;6.560;2023-04-24T08:34:54;13.70;64.50
20091;DHT22;10205;49.678;6.560;2023-04-24T08:37:22;13.70;64.50
20091;DHT22;10205;49.678;6.560;2023-04-24T08:39:49;13.70;64.20
20091;DHT22;10205;49.678;6.560;2023-04-24T08:42:18;13.80;64.50
20091;DHT22;10205;49.678;6.560;2023-04-24T08:44:47;13.80;64.50
20091;DHT22;10205;49.678;6.560;2023-04-24T08:47:16;13.80;64.50
20091;DHT22;10205;49.678;6.560;2023-04-24T08:49:45;13.80;64.70
20091;DHT22;10205;49.678;6.560;2023-04-24T08:52:18;13.80;64.60
20091;DHT22;10205;49.678;6.560;2023-04-24T08:54:46;13.90;64.80
20091;DHT22;10205;49.678;6.560;2023-04-24T08:57:15;13.90;64.60
20091;DHT22;10205;49.678;6.560;2023-04-24T08:59:43;13.90;64.40
20091;DHT22;10205;49.678;6.560;2023-04-24T09:02:11;14.00;64.40
20091;DHT22;10205;49.678;6.560;2023-04-24T09:04:40;14.00;64.40
20091;DHT22;10205;49.678;6.560;2023-04-24T09:07:12;14.00;64.20
20091;DHT22;10205;49.678;6.560;2023-04-24T09:09:42;14.00;64.10
20091;DHT22;10205;49.678;6.560;2023-04-24T09:12:10;14.00;64.00
20091;DHT22;10205;49.678;6.560;2023-04-24T09:14:38;14.00;64.10
20091;DHT22;10205;49.678;6.560;2023-04-24T09:17:08;14.10;64.00
20091;DHT22;10205;49.678;6.560;2023-04-24T09:19:35;14.10;63.90
20091;DHT22;10205;49.678;6.560;2023-04-24T09:22:05;14.10;63.90
20091;DHT22;10205;49.678;6.560;2023-04-24T09:24:34;14.10;64.00
20091;DHT22;10205;49.678;6.560;2023-04-24T09:27:02;14.20;63.80
20091;DHT22;10205;49.678;6.560;2023-04-24T09:29:29;14.20;63.80
20091;DHT22;10205;49.678;6.560;2023-04-24T09:31:58;14.20;63.80
20091;DHT22;10205;49.678;6.560;2023-04-24T09:34:26;14.20;63.60
20091;DHT22;10205;49.678;6.560;2023-04-24T09:36:54;14.30;63.40
20091;DHT22;10205;49.678;6.560;2023-04-24T09:39:23;14.30;63.30
20091;DHT22;10205;49.678;6.560;2023-04-24T09:41:52;14.40;63.40
20091;DHT22;10205;49.678;6.560;2023-04-24T09:44:24;14.30;63.40
20091;DHT22;10205;49.678;6.560;2023-04-24T09:46:54;14.40;63.30
20091;DHT22;10205;49.678;6.560;2023-04-24T09:49:23;14.40;63.30
20091;DHT22;10205;49.678;6.560;2023-04-24T09:51:52;14.40;63.30
20091;DHT22;10205;49.678;6.560;2023-04-24T09:54:28;14.40;63.40
20091;DHT22;10205;49.678;6.560;2023-04-24T09:56:59;14.50;63.30
20091;DHT22;10205;49.678;6.560;2023-04-24T09:59:27;14.50;63.20
20091;DHT22;10205;49.678;6.560;2023-04-24T10:01:54;14.50;63.00
20091;DHT22;10205;49.678;6.560;2023-04-24T10:04:26;14.60;63.00
20091;DHT22;10205;49.678;6.560;2023-04-24T10:06:56;14.60;62.90
20091;DHT22;10205;49.678;6.560;2023-04-24T10:09:25;14.60;62.60
20091;DHT22;10205;49.678;6.560;2023-04-24T10:11:54;14.60;62.30
20091;DHT22;10205;49.678;6.560;2023-04-24T10:14:24;14.70;62.40
20091;DHT22;10205;49.678;6.560;2023-04-24T10:16:53;14.70;62.10
20091;DHT22;10205;49.678;6.560;2023-04-24T10:19:25;14.70;62.00
20091;DHT22;10205;49.678;6.560;2023-04-24T10:21:53;14.80;62.00
20091;DHT22;10205;49.678;6.560;2023-04-24T10:24:22;14.80;61.90
20091;DHT22;10205;49.678;6.560;2023-04-24T10:26:50;14.80;62.00
20091;DHT22;10205;49.678;6.560;2023-04-24T10:29:18;14.90;62.10
20091;DHT22;10205;49.678;6.560;2023-04-24T10:31:48;14.90;62.00
20091;DHT22;10205;49.678;6.560;2023-04-24T10:34:17;14.90;61.50
20091;DHT22;10205;49.678;6.560;2023-04-24T10:36:51;14.90;61.30
20091;DHT22;10205;49.678;6.560;2023-04-24T10:39:20;14.90;61.10
20091;DHT22;10205;49.678;6.560;2023-04-24T10:41:49;15.00;61.10
20091;DHT22;10205;49.678;6.560;2023-04-24T10:44:16;15.00;60.90
20091;DHT22;10205;49.678;6.560;2023-04-24T10:46:45;15.00;60.60
20091;DHT22;10205;49.678;6.560;2023-04-24T10:49:15;15.10;61.30
20091;DHT22;10205;49.678;6.560;2023-04-24T10:51:47;15.10;60.30
20091;DHT22;10205;49.678;6.560;2023-04-24T10:54:25;15.10;59.90
20091;DHT22;10205;49.678;6.560;2023-04-24T10:57:26;15.10;59.50
20091;DHT22;10205;49.678;6.560;2023-04-24T11:00:14;15.20;59.10
20091;DHT22;10205;49.678;6.560;2023-04-24T11:02:46;15.20;59.30
20091;DHT22;10205;49.678;6.560;2023-04-24T11:05:20;15.20;58.80
20091;DHT22;10205;49.678;6.560;2023-04-24T11:08:10;15.20;59.10
20091;DHT22;10205;49.678;6.560;2023-04-24T11:10:39;15.20;58.60
20091;DHT22;10205;49.678;6.560;2023-04-24T11:13:08;15.30;59.00
20091;DHT22;10205;49.678;6.560;2023-04-24T11:15:37;15.30;59.10
20091;DHT22;10205;49.678;6.560;2023-04-24T11:18:13;15.30;58.40
20091;DHT22;10205;49.678;6.560;2023-04-24T11:28:29;15.40;58.50
20091;DHT22;10205;49.678;6.560;2023-04-24T11:34:17;15.40;58.40
20091;DHT22;10205;49.678;6.560;2023-04-24T11:36:58;15.50;58.70
20091;DHT22;10205;49.678;6.560;2023-04-24T11:39:37;15.40;58.40
20091;DHT22;10205;49.678;6.560;2023-04-24T11:42:40;15.50;58.60
20091;DHT22;10205;49.678;6.560;2023-04-24T11:45:27;15.50;58.50
20091;DHT22;10205;49.678;6.560;2023-04-24T11:47:55;15.50;58.50
20091;DHT22;10205;49.678;6.560;2023-04-24T11:50:57;15.50;58.70
20091;DHT22;10205;49.678;6.560;2023-04-24T11:54:19;15.50;58.40
20091;DHT22;10205;49.678;6.560;2023-04-24T11:57:43;15.60;58.50
20091;DHT22;10205;49.678;6.560;2023-04-24T12:00:17;15.70;58.50
20091;DHT22;10205;49.678;6.560;2023-04-24T12:02:46;15.60;58.60
20091;DHT22;10205;49.678;6.560;2023-04-24T12:05:19;15.70;58.60
20091;DHT22;10205;49.678;6.560;2023-04-24T12:07:47;15.70;58.60
20091;DHT22;10205;49.678;6.560;2023-04-24T12:10:19;15.70;58.60
20091;DHT22;10205;49.678;6.560;2023-04-24T12:12:47;15.70;58.20
20091;DHT22;10205;49.678;6.560;2023-04-24T12:15:16;15.70;58.30
20091;DHT22;10205;49.678;6.560;2023-04-24T12:17:45;15.70;58.40
20091;DHT22;10205;49.678;6.560;2023-04-24T12:20:13;15.80;58.50
20091;DHT22;10205;49.678;6.560;2023-04-24T12:22:45;15.80;58.50
20091;DHT22;10205;49.678;6.560;2023-04-24T12:25:13;15.80;58.30
20091;DHT22;10205;49.678;6.560;2023-04-24T12:28:15;15.90;58.40
20091;DHT22;10205;49.678;6.560;2023-04-24T12:31:28;15.90;57.80
20091;DHT22;10205;49.678;6.560;2023-04-24T12:33:57;15.90;58.00
20091;DHT22;10205;49.678;6.560;2023-04-24T12:36:25;16.00;58.80
20091;DHT22;10205;49.678;6.560;2023-04-24T12:43:17;16.00;57.60
20091;DHT22;10205;49.678;6.560;2023-04-24T12:45:51;16.10;57.40
20091;DHT22;10205;49.678;6.560;2023-04-24T12:48:18;16.10;57.50
20091;DHT22;10205;49.678;6.560;2023-04-24T12:50:55;16.10;57.30
20091;DHT22;10205;49.678;6.560;2023-04-24T12:53:28;16.10;56.90
20091;DHT22;10205;49.678;6.560;2023-04-24T12:56:02;16.20;57.10
20091;DHT22;10205;49.678;6.560;2023-04-24T12:58:31;16.20;56.90
20091;DHT22;10205;49.678;6.560;2023-04-24T13:00:58;16.20;56.90
20091;DHT22;10205;49.678;6.560;2023-04-24T13:03:26;16.20;57.00
20091;DHT22;10205;49.678;6.560;2023-04-24T13:05:53;16.30;57.00
20091;DHT22;10205;49.678;6.560;2023-04-24T13:08:20;16.30;56.80
20091;DHT22;10205;49.678;6.560;2023-04-24T13:10:48;16.40;56.60
20091;DHT22;10205;49.678;6.560;2023-04-24T13:13:16;16.40;56.70
20091;DHT22;10205;49.678;6.560;2023-04-24T13:15:45;16.40;57.40
20091;DHT22;10205;49.678;6.560;2023-04-24T13:18:12;16.50;56.50
20091;DHT22;10205;49.678;6.560;2023-04-24T13:20:39;16.50;56.60
20091;DHT22;10205;49.678;6.560;2023-04-24T13:23:07;16.60;56.60
20091;DHT22;10205;49.678;6.560;2023-04-24T13:25:35;16.60;56.40
20091;DHT22;10205;49.678;6.560;2023-04-24T13:28:04;16.70;56.10
20091;DHT22;10205;49.678;6.560;2023-04-24T13:30:32;16.70;56.80
20091;DHT22;10205;49.678;6.560;2023-04-24T13:33:00;16.70;55.70
20091;DHT22;10205;49.678;6.560;2023-04-24T13:35:28;16.80;55.60
20091;DHT22;10205;49.678;6.560;2023-04-24T13:37:55;16.80;55.70
20091;DHT22;10205;49.678;6.560;2023-04-24T13:40:22;16.80;55.60
20091;DHT22;10205;49.678;6.560;2023-04-24T13:42:49;16.90;55.80
20091;DHT22;10205;49.678;6.560;2023-04-24T13:45:17;16.90;55.50
20091;DHT22;10205;49.678;6.560;2023-04-24T13:47:44;17.00;55.60
20091;DHT22;10205;49.678;6.560;2023-04-24T13:50:13;17.00;55.50
20091;DHT22;10205;49.678;6.560;2023-04-24T13:52:40;17.00;55.50
20091;DHT22;10205;49.678;6.560;2023-04-24T13:55:08;17.10;55.70
20091;DHT22;10205;49.678;6.560;2023-04-24T13:57:35;17.10;55.70
20091;DHT22;10205;49.678;6.560;2023-04-24T14:00:03;17.20;55.90
20091;DHT22;10205;49.678;6.560;2023-04-24T14:02:32;17.20;56.00
20091;DHT22;10205;49.678;6.560;2023-04-24T14:04:59;17.30;55.90
20091;DHT22;10205;49.678;6.560;2023-04-24T14:07:28;17.30;55.80
20091;DHT22;10205;49.678;6.560;2023-04-24T14:09:55;17.30;55.50
20091;DHT22;10205;49.678;6.560;2023-04-24T14:12:22;17.40;55.70
20091;DHT22;10205;49.678;6.560;2023-04-24T14:14:50;17.40;55.40
20091;DHT22;10205;49.678;6.560;2023-04-24T14:17:17;17.40;55.50
20091;DHT22;10205;49.678;6.560;2023-04-24T14:19:44;17.40;55.30
20091;DHT22;10205;49.678;6.560;2023-04-24T14:22:11;17.50;56.10
20091;DHT22;10205;49.678;6.560;2023-04-24T14:24:40;17.50;55.50
20091;DHT22;10205;49.678;6.560;2023-04-24T14:27:07;17.50;55.40
20091;DHT22;10205;49.678;6.560;2023-04-24T14:29:34;17.50;55.50
20091;DHT22;10205;49.678;6.560;2023-04-24T14:32:01;17.60;55.40
20091;DHT22;10205;49.678;6.560;2023-04-24T14:34:28;17.60;55.30
20091;DHT22;10205;49.678;6.560;2023-04-24T14:36:55;17.60;55.30
20091;DHT22;10205;49.678;6.560;2023-04-24T14:39:24;17.60;55.20
20091;DHT22;10205;49.678;6.560;2023-04-24T14:41:52;17.60;55.20
20091;DHT22;10205;49.678;6.560;2023-04-24T14:44:20;17.60;55.00
20091;DHT22;10205;49.678;6.560;2023-04-24T14:46:48;17.70;55.60
20091;DHT22;10205;49.678;6.560;2023-04-24T14:49:16;17.70;54.80
20091;DHT22;10205;49.678;6.560;2023-04-24T14:51:44;17.70;55.00
20091;DHT22;10205;49.678;6.560;2023-04-24T14:54:11;17.70;54.70
20091;DHT22;10205;49.678;6.560;2023-04-24T14:56:39;17.70;54.90
20091;DHT22;10205;49.678;6.560;2023-04-24T14:59:12;17.70;55.60
20091;DHT22;10205;49.678;6.560;2023-04-24T15:01:47;17.70;54.80
20091;DHT22;10205;49.678;6.560;2023-04-24T15:04:16;17.80;54.80
20091;DHT22;10205;49.678;6.560;2023-04-24T15:06:43;17.80;54.60
20091;DHT22;10205;49.678;6.560;2023-04-24T15:09:11;17.80;54.60
20091;DHT22;10205;49.678;6.560;2023-04-24T15:11:40;17.80;54.60
20091;DHT22;10205;49.678;6.560;2023-04-24T15:14:07;17.80;54.40
20091;DHT22;10205;49.678;6.560;2023-04-24T15:16:36;17.90;54.30
20091;DHT22;10205;49.678;6.560;2023-04-24T15:19:03;17.90;54.20
20091;DHT22;10205;49.678;6.560;2023-04-24T15:21:31;17.90;54.10
20091;DHT22;10205;49.678;6.560;2023-04-24T15:23:58;17.90;53.80
20091;DHT22;10205;49.678;6.560;2023-04-24T15:26:25;17.90;53.60
20091;DHT22;10205;49.678;6.560;2023-04-24T15:28:53;17.90;53.40
20091;DHT22;10205;49.678;6.560;2023-04-24T15:31:20;17.80;53.50
20091;DHT22;10205;49.678;6.560;2023-04-24T15:33:49;17.80;53.60
20091;DHT22;10205;49.678;6.560;2023-04-24T15:36:17;17.80;53.60
20091;DHT22;10205;49.678;6.560;2023-04-24T15:38:47;17.80;53.70
20091;DHT22;10205;49.678;6.560;2023-04-24T15:41:18;17.80;53.90
20091;DHT22;10205;49.678;6.560;2023-04-24T15:43:46;17.80;54.00
20091;DHT22;10205;49.678;6.560;2023-04-24T15:46:13;17.80;54.10
20091;DHT22;10205;49.678;6.560;2023-04-24T15:48:42;17.80;54.30
20091;DHT22;10205;49.678;6.560;2023-04-24T15:51:10;17.80;54.30
20091;DHT22;10205;49.678;6.560;2023-04-24T15:53:37;17.70;54.30
20091;DHT22;10205;49.678;6.560;2023-04-24T15:56:05;17.70;54.40
20091;DHT22;10205;49.678;6.560;2023-04-24T15:58:32;17.70;54.50
20091;DHT22;10205;49.678;6.560;2023-04-24T16:00:59;17.70;54.60